sensor_id;sensor_type;location;lat;lon;timestamp;temperature;humidity
29295;DHT22;16305;48.566;8.846;2022-12-07T00:01:24;2.70;99.90
29295;DHT22;16305;48.566;8.846;2022-12-07T00:03:53;2.60;99.90
29295;DHT22;16305;48.566;8.846;2022-12-07T00:06:19;2.80;99.90
29295;DHT22;16305;48.566;8.846;2022-12-07T00:08:46;2.70;99.90
29295;DHT22;16305;48.566;8.846;2022-12-07T00:11:17;2.60;99.90
29295;DHT22;16305;48.566;8.846;2022-12-07T00:13:44;2.50;99.90
29295;DHT22;16305;48.566;8.846;2022-12-07T00:16:18;2.50;99.90
29295;DHT22;16305;48.566;8.846;2022-12-07T00:18:44;2.50;99.90
29295;DHT22;16305;48.566;8.846;2022-12-07T00:21:15;2.50;99.90
29295;DHT22;16305;48.566;8.846;2022-12-07T00:23:43;2.50;99.90
29295;DHT22;16305;48.566;8.846;2022-12-07T00:26:10;2.70;99.90
29295;DHT22;16305;48.566;8.846;2022-12-07T00:28:36;2.60;99.90
29295;DHT22;16305;48.566;8.846;2022-12-07T00:31:04;2.60;99.90
29295;DHT22;16305;48.566;8.846;2022-12-07T00:33:30;2.60;99.90
29295;DHT22;16305;48.566;8.846;2022-12-07T00:35:57;2.60;99.90
29295;DHT22;16305;48.566;8.846;2022-12-07T00:38:22;2.90;99.90
29295;DHT22;16305;48.566;8.846;2022-12-07T00:40:58;3.00;99.90
29295;DHT22;16305;48.566;8.846;2022-12-07T00:43:24;2.80;99.90
29295;DHT22;16305;48.566;8.846;2022-12-07T00:45:50;2.70;99.90
29295;DHT22;16305;48.566;8.846;2022-12-07T00:48:15;2.80;99.90
29295;DHT22;16305;48.566;8.846;2022-12-07T00:50:41;2.80;99.90
29295;DHT22;16305;48.566;8.846;2022-12-07T00:53:06;2.70;99.90
29295;DHT22;16305;48.566;8.846;2022-12-07T00:55:35;2.80;99.90
29295;DHT22;16305;48.566;8.846;2022-12-07T00:58:02;2.70;99.90
29295;DHT22;16305;48.566;8.846;2022-12-07T01:00:27;2.60;99.90
29295;DHT22;16305;48.566;8.846;2022-12-07T01:02:53;2.60;99.90
29295;DHT22;16305;48.566;8.846;2022-12-07T01:05:19;2.50;99.90
29295;DHT22;16305;48.566;8.846;2022-12-07T01:07:44;2.60;99.90
29295;DHT22;16305;48.566;8.846;2022-12-07T01:10:12;2.50;99.90
29295;DHT22;16305;48.566;8.846;2022-12-07T01:12:37;2.50;99.90
29295;DHT22;16305;48.566;8.846;2022-12-07T01:15:04;2.50;99.90
29295;DHT22;16305;48.566;8.846;2022-12-07T01:17:29;2.50;99.90
29295;DHT22;16305;48.566;8.846;2022-12-07T01:19:55;2.60;99.90
29295;DHT22;16305;48.566;8.846;2022-12-07T01:22:20;2.50;99.90
29295;DHT22;16305;48.566;8.846;2022-12-07T01:24:46;2.50;99.90
29295;DHT22;16305;48.566;8.846;2022-12-07T01:27:13;2.50;99.90
29295;DHT22;16305;48.566;8.846;2022-12-07T01:29:39;2.50;99.90
29295;DHT22;16305;48.566;8.846;2022-12-07T01:32:04;2.50;99.90
29295;DHT22;16305;48.566;8.846;2022-12-07T01:34:30;2.50;99.90
29295;DHT22;16305;48.566;8.846;2022-12-07T01:36:55;2.50;99.90
29295;DHT22;16305;48.566;8.846;2022-12-07T01:39:21;2.60;99.90
29295;DHT22;16305;48.566;8.846;2022-12-07T01:41:47;2.60;99.90
29295;DHT22;16305;48.566;8.846;2022-12-07T01:44:20;2.60;99.90
29295;DHT22;16305;48.566;8.846;2022-12-07T01:46:57;2.80;99.90
29295;DHT22;16305;48.566;8.846;2022-12-07T01:49:27;2.80;99.90
29295;DHT22;16305;48.566;8.846;2022-12-07T01:52:23;2.80;99.90
29295;DHT22;16305;48.566;8.846;2022-12-07T01:54:47;2.90;99.90
29295;DHT22;16305;48.566;8.846;2022-12-07T01:57:14;2.80;99.90
29295;DHT22;16305;48.566;8.846;2022-12-07T01:59:42;2.80;99.90
29295;DHT22;16305;48.566;8.846;2022-12-07T02:02:18;2.80;99.90
29295;DHT22;16305;48.566;8.846;2022-12-07T02:04:45;2.90;99.90
29295;DHT22;16305;48.566;8.846;2022-12-07T02:07:11;3.00;99.90
29295;DHT22;16305;48.566;8.846;2022-12-07T02:09:37;3.00;99.90
29295;DHT22;16305;48.566;8.846;2022-12-07T02:12:03;3.10;99.90
29295;DHT22;16305;48.566;8.846;2022-12-07T02:14:29;3.20;99.90
29295;DHT22;16305;48.566;8.846;2022-12-07T02:17:06;3.10;99.90
29295;DHT22;16305;48.566;8.846;2022-12-07T02:28:17;2.40;99.90
29295;DHT22;16305;48.566;8.846;2022-12-07T02:30:47;2.20;99.90
29295;DHT22;16305;48.566;8.846;2022-12-07T02:33:18;2.10;99.90
29295;DHT22;16305;48.566;8.846;2022-12-07T02:36:04;2.00;99.90
29295;DHT22;16305;48.566;8.846;2022-12-07T02:38:40;2.00;99.90
29295;DHT22;16305;48.566;8.846;2022-12-07T02:42:02;2.00;99.90
29295;DHT22;16305;48.566;8.846;2022-12-07T02:44:12;1.90;99.90
29295;DHT22;16305;48.566;8.846;2022-12-07T02:46:46;1.90;99.90
29295;DHT22;16305;48.566;8.846;2022-12-07T02:49:12;2.00;99.90
29295;DHT22;16305;48.566;8.846;2022-12-07T02:51:43;2.00;99.90
29295;DHT22;16305;48.566;8.846;2022-12-07T02:54:16;1.90;99.90
29295;DHT22;16305;48.566;8.846;2022-12-07T02:57:14;2.10;99.90
29295;DHT22;16305;48.566;8.846;2022-12-07T03:00:04;2.10;99.90
29295;DHT22;16305;48.566;8.846;2022-12-07T03:05:47;1.90;99.90
29295;DHT22;16305;48.566;8.846;2022-12-07T03:08:26;1.90;99.90
29295;DHT22;16305;48.566;8.846;2022-12-07T03:16:16;1.60;99.90
29295;DHT22;16305;48.566;8.846;2022-12-07T03:18:53;1.70;99.90
29295;DHT22;16305;48.566;8.846;2022-12-07T03:21:26;1.90;99.90
29295;DHT22;16305;48.566;8.846;2022-12-07T03:23:56;1.90;99.90
29295;DHT22;16305;48.566;8.846;2022-12-07T03:26:27;1.80;99.90
29295;DHT22;16305;48.566;8.846;2022-12-07T03:28:58;1.80;99.90
29295;DHT22;16305;48.566;8.846;2022-12-07T03:31:29;1.70;99.90
29295;DHT22;16305;48.566;8.846;2022-12-07T03:37:18;1.50;99.90
29295;DHT22;16305;48.566;8.846;2022-12-07T03:40:11;1.50;99.90
29295;DHT22;16305;48.566;8.846;2022-12-07T03:42:39;1.50;99.90
29295;DHT22;16305;48.566;8.846;2022-12-07T03:45:06;1.40;99.90
29295;DHT22;16305;48.566;8.846;2022-12-07T03:47:59;1.40;99.90
29295;DHT22;16305;48.566;8.846;2022-12-07T03:53:35;1.50;99.90
29295;DHT22;16305;48.566;8.846;2022-12-07T03:56:02;1.50;99.90
29295;DHT22;16305;48.566;8.846;2022-12-07T03:58:28;1.50;99.90
29295;DHT22;16305;48.566;8.846;2022-12-07T04:00:55;1.40;99.90
29295;DHT22;16305;48.566;8.846;2022-12-07T04:03:21;1.40;99.90
29295;DHT22;16305;48.566;8.846;2022-12-07T04:05:47;1.40;99.90
29295;DHT22;16305;48.566;8.846;2022-12-07T04:08:12;1.30;99.90
29295;DHT22;16305;48.566;8.846;2022-12-07T04:10:38;1.30;99.90
29295;DHT22;16305;48.566;8.846;2022-12-07T04:13:04;1.40;99.90
29295;DHT22;16305;48.566;8.846;2022-12-07T04:15:29;1.40;99.90
29295;DHT22;16305;48.566;8.846;2022-12-07T04:17:55;1.40;99.90
29295;DHT22;16305;48.566;8.846;2022-12-07T04:20:20;1.40;99.90
29295;DHT22;16305;48.566;8.846;2022-12-07T04:22:46;1.50;99.90
29295;DHT22;16305;48.566;8.846;2022-12-07T04:25:12;1.50;99.90
29295;DHT22;16305;48.566;8.846;2022-12-07T04:27:37;1.60;99.90
29295;DHT22;16305;48.566;8.846;2022-12-07T04:30:03;1.60;99.90
29295;DHT22;16305;48.566;8.846;2022-12-07T04:32:32;1.50;99.90
29295;DHT22;16305;48.566;8.846;2022-12-07T04:34:57;1.50;99.90
29295;DHT22;16305;48.566;8.846;2022-12-07T04:37:23;1.40;99.90
29295;DHT22;16305;48.566;8.846;2022-12-07T04:39:49;1.50;99.90
29295;DHT22;16305;48.566;8.846;2022-12-07T04:42:15;1.40;99.90
29295;DHT22;16305;48.566;8.846;2022-12-07T04:44:40;1.40;99.90
29295;DHT22;16305;48.566;8.846;2022-12-07T04:47:06;1.40;99.90
29295;DHT22;16305;48.566;8.846;2022-12-07T04:49:32;1.40;99.90
29295;DHT22;16305;48.566;8.846;2022-12-07T04:51:57;1.50;99.90
29295;DHT22;16305;48.566;8.846;2022-12-07T04:54:23;1.40;99.90
29295;DHT22;16305;48.566;8.846;2022-12-07T04:56:49;1.40;99.90
29295;DHT22;16305;48.566;8.846;2022-12-07T04:59:15;1.40;99.90
29295;DHT22;16305;48.566;8.846;2022-12-07T05:01:41;1.50;99.90
29295;DHT22;16305;48.566;8.846;2022-12-07T05:04:07;1.50;99.90
29295;DHT22;16305;48.566;8.846;2022-12-07T05:06:33;1.60;99.90
29295;DHT22;16305;48.566;8.846;2022-12-07T05:09:00;1.50;99.90
29295;DHT22;16305;48.566;8.846;2022-12-07T05:11:26;1.60;99.90
29295;DHT22;16305;48.566;8.846;2022-12-07T05:14:10;1.60;99.90
29295;DHT22;16305;48.566;8.846;2022-12-07T05:16:36;1.50;99.90
29295;DHT22;16305;48.566;8.846;2022-12-07T05:19:02;1.50;99.90
29295;DHT22;16305;48.566;8.846;2022-12-07T05:21:28;1.40;99.90
29295;DHT22;16305;48.566;8.846;2022-12-07T05:23:54;1.40;99.90
29295;DHT22;16305;48.566;8.846;2022-12-07T05:26:19;1.40;99.90
29295;DHT22;16305;48.566;8.846;2022-12-07T05:28:45;1.30;99.90
29295;DHT22;16305;48.566;8.846;2022-12-07T05:31:14;1.20;99.90
29295;DHT22;16305;48.566;8.846;2022-12-07T05:33:40;1.10;99.90
29295;DHT22;16305;48.566;8.846;2022-12-07T05:36:05;0.90;99.90
29295;DHT22;16305;48.566;8.846;2022-12-07T05:38:33;0.90;99.90
29295;DHT22;16305;48.566;8.846;2022-12-07T05:41:03;0.90;99.90
29295;DHT22;16305;48.566;8.846;2022-12-07T05:43:29;0.90;99.90
29295;DHT22;16305;48.566;8.846;2022-12-07T05:45:55;0.90;99.90
29295;DHT22;16305;48.566;8.846;2022-12-07T05:48:21;1.00;99.90
29295;DHT22;16305;48.566;8.846;2022-12-07T05:50:50;1.00;99.90
29295;DHT22;16305;48.566;8.846;2022-12-07T05:53:16;0.90;99.90
29295;DHT22;16305;48.566;8.846;2022-12-07T05:55:42;0.80;99.90
29295;DHT22;16305;48.566;8.846;2022-12-07T05:58:08;0.70;99.90
29295;DHT22;16305;48.566;8.846;2022-12-07T06:00:57;0.60;99.90
29295;DHT22;16305;48.566;8.846;2022-12-07T06:03:23;0.60;99.90
29295;DHT22;16305;48.566;8.846;2022-12-07T06:05:48;0.60;99.90
29295;DHT22;16305;48.566;8.846;2022-12-07T06:08:14;0.70;99.90
29295;DHT22;16305;48.566;8.846;2022-12-07T06:10:43;0.70;99.90
29295;DHT22;16305;48.566;8.846;2022-12-07T06:13:08;0.60;99.90
29295;DHT22;16305;48.566;8.846;2022-12-07T06:15:37;0.60;99.90
29295;DHT22;16305;48.566;8.846;2022-12-07T06:18:03;0.60;99.90
29295;DHT22;16305;48.566;8.846;2022-12-07T06:20:29;0.60;99.90
29295;DHT22;16305;48.566;8.846;2022-12-07T06:22:54;0.30;99.90
29295;DHT22;16305;48.566;8.846;2022-12-07T06:25:20;0.20;99.90
29295;DHT22;16305;48.566;8.846;2022-12-07T06:27:45;0.20;99.90
29295;DHT22;16305;48.566;8.846;2022-12-07T06:30:11;0.30;99.90
29295;DHT22;16305;48.566;8.846;2022-12-07T06:32:37;0.30;99.90
29295;DHT22;16305;48.566;8.846;2022-12-07T06:35:03;0.30;99.90
29295;DHT22;16305;48.566;8.846;2022-12-07T06:37:29;0.30;99.90
29295;DHT22;16305;48.566;8.846;2022-12-07T06:39:54;0.40;99.90
29295;DHT22;16305;48.566;8.846;2022-12-07T06:42:20;0.50;99.90
29295;DHT22;16305;48.566;8.846;2022-12-07T06:44:45;0.60;99.90
29295;DHT22;16305;48.566;8.846;2022-12-07T06:47:11;0.60;99.90
29295;DHT22;16305;48.566;8.846;2022-12-07T06:49:36;0.70;99.90
29295;DHT22;16305;48.566;8.846;2022-12-07T06:52:02;0.70;99.90
29295;DHT22;16305;48.566;8.846;2022-12-07T06:54:30;0.70;99.90
29295;DHT22;16305;48.566;8.846;2022-12-07T06:56:55;0.50;99.90
29295;DHT22;16305;48.566;8.846;2022-12-07T06:59:21;0.50;99.90
29295;DHT22;16305;48.566;8.846;2022-12-07T07:01:46;0.60;99.90
29295;DHT22;16305;48.566;8.846;2022-12-07T07:04:12;0.80;99.90
29295;DHT22;16305;48.566;8.846;2022-12-07T07:06:37;0.80;99.90
29295;DHT22;16305;48.566;8.846;2022-12-07T07:09:03;0.60;99.90
29295;DHT22;16305;48.566;8.846;2022-12-07T07:11:29;0.60;99.90
29295;DHT22;16305;48.566;8.846;2022-12-07T07:13:54;0.70;99.90
29295;DHT22;16305;48.566;8.846;2022-12-07T07:16:22;0.70;99.90
29295;DHT22;16305;48.566;8.846;2022-12-07T07:18:48;0.80;99.90
29295;DHT22;16305;48.566;8.846;2022-12-07T07:21:13;0.80;99.90
29295;DHT22;16305;48.566;8.846;2022-12-07T07:23:39;0.70;99.90
29295;DHT22;16305;48.566;8.846;2022-12-07T07:26:05;0.80;99.90
29295;DHT22;16305;48.566;8.846;2022-12-07T07:28:30;0.70;99.90
29295;DHT22;16305;48.566;8.846;2022-12-07T07:30:56;0.80;99.90
29295;DHT22;16305;48.566;8.846;2022-12-07T07:33:21;0.80;99.90
29295;DHT22;16305;48.566;8.846;2022-12-07T07:35:47;0.80;99.90
29295;DHT22;16305;48.566;8.846;2022-12-07T07:38:12;0.80;99.90
29295;DHT22;16305;48.566;8.846;2022-12-07T07:40:38;0.90;99.90
29295;DHT22;16305;48.566;8.846;2022-12-07T07:43:03;0.90;99.90
29295;DHT22;16305;48.566;8.846;2022-12-07T07:45:29;0.90;99.90
29295;DHT22;16305;48.566;8.846;2022-12-07T07:47:55;0.90;99.90
29295;DHT22;16305;48.566;8.846;2022-12-07T07:50:20;1.00;99.90
29295;DHT22;16305;48.566;8.846;2022-12-07T07:52:46;1.00;99.90
29295;DHT22;16305;48.566;8.846;2022-12-07T07:55:12;0.90;99.90
29295;DHT22;16305;48.566;8.846;2022-12-07T07:57:38;1.00;99.90
29295;DHT22;16305;48.566;8.846;2022-12-07T08:00:09;0.90;99.90
29295;DHT22;16305;48.566;8.846;2022-12-07T08:02:35;1.00;99.90
29295;DHT22;16305;48.566;8.846;2022-12-07T08:05:01;1.00;99.90
29295;DHT22;16305;48.566;8.846;2022-12-07T08:07:27;1.00;99.90
29295;DHT22;16305;48.566;8.846;2022-12-07T08:09:53;0.90;99.90
29295;DHT22;16305;48.566;8.846;2022-12-07T08:12:18;0.90;99.90
29295;DHT22;16305;48.566;8.846;2022-12-07T08:14:44;0.90;99.90
29295;DHT22;16305;48.566;8.846;2022-12-07T08:17:09;0.90;99.90
29295;DHT22;16305;48.566;8.846;2022-12-07T08:19:35;0.90;99.90
29295;DHT22;16305;48.566;8.846;2022-12-07T08:22:00;1.00;99.90
29295;DHT22;16305;48.566;8.846;2022-12-07T08:24:26;1.00;99.90
29295;DHT22;16305;48.566;8.846;2022-12-07T08:26:52;0.90;99.90
29295;DHT22;16305;48.566;8.846;2022-12-07T08:29:18;0.90;99.90
29295;DHT22;16305;48.566;8.846;2022-12-07T08:31:43;0.80;99.90
29295;DHT22;16305;48.566;8.846;2022-12-07T08:34:11;0.80;99.90
29295;DHT22;16305;48.566;8.846;2022-12-07T08:36:36;0.80;99.90
29295;DHT22;16305;48.566;8.846;2022-12-07T08:39:02;0.80;99.90
29295;DHT22;16305;48.566;8.846;2022-12-07T08:41:28;0.90;99.90
29295;DHT22;16305;48.566;8.846;2022-12-07T08:43:53;1.10;99.90
29295;DHT22;16305;48.566;8.846;2022-12-07T08:46:23;1.30;99.90
29295;DHT22;16305;48.566;8.846;2022-12-07T08:48:57;1.20;99.90
29295;DHT22;16305;48.566;8.846;2022-12-07T08:51:24;1.10;99.90
29295;DHT22;16305;48.566;8.846;2022-12-07T08:53:51;1.10;99.90
29295;DHT22;16305;48.566;8.846;2022-12-07T08:56:17;1.20;99.90
29295;DHT22;16305;48.566;8.846;2022-12-07T08:58:43;1.10;99.90
29295;DHT22;16305;48.566;8.846;2022-12-07T09:01:09;1.30;99.90
29295;DHT22;16305;48.566;8.846;2022-12-07T09:03:35;1.60;99.90
29295;DHT22;16305;48.566;8.846;2022-12-07T09:06:00;1.60;99.90
29295;DHT22;16305;48.566;8.846;2022-12-07T09:08:31;1.70;99.90
29295;DHT22;16305;48.566;8.846;2022-12-07T09:10:59;1.60;99.90
29295;DHT22;16305;48.566;8.846;2022-12-07T09:13:24;1.60;99.90
29295;DHT22;16305;48.566;8.846;2022-12-07T09:15:50;1.60;99.90
29295;DHT22;16305;48.566;8.846;2022-12-07T09:18:15;1.60;99.90
29295;DHT22;16305;48.566;8.846;2022-12-07T09:20:41;1.70;99.90
29295;DHT22;16305;48.566;8.846;2022-12-07T09:23:07;1.70;99.90
29295;DHT22;16305;48.566;8.846;2022-12-07T09:25:34;1.80;99.90
29295;DHT22;16305;48.566;8.846;2022-12-07T09:27:59;1.80;99.90
29295;DHT22;16305;48.566;8.846;2022-12-07T09:30:26;2.00;99.90
29295;DHT22;16305;48.566;8.846;2022-12-07T09:32:56;2.10;99.90
29295;DHT22;16305;48.566;8.846;2022-12-07T09:35:22;2.10;99.90
29295;DHT22;16305;48.566;8.846;2022-12-07T09:37:48;2.30;99.90
29295;DHT22;16305;48.566;8.846;2022-12-07T09:40:16;2.40;99.90
29295;DHT22;16305;48.566;8.846;2022-12-07T09:42:44;2.50;99.90
29295;DHT22;16305;48.566;8.846;2022-12-07T09:45:15;2.40;99.90
29295;DHT22;16305;48.566;8.846;2022-12-07T09:47:42;2.50;99.90
29295;DHT22;16305;48.566;8.846;2022-12-07T09:50:14;2.70;99.90
29295;DHT22;16305;48.566;8.846;2022-12-07T09:52:41;2.70;99.90
29295;DHT22;16305;48.566;8.846;2022-12-07T09:55:14;2.70;99.90
29295;DHT22;16305;48.566;8.846;2022-12-07T09:57:40;2.70;99.90
29295;DHT22;16305;48.566;8.846;2022-12-07T10:00:13;2.90;99.90
29295;DHT22;16305;48.566;8.846;2022-12-07T10:03:00;3.20;99.90
29295;DHT22;16305;48.566;8.846;2022-12-07T10:05:38;3.30;99.90
29295;DHT22;16305;48.566;8.846;2022-12-07T10:08:07;3.60;99.90
29295;DHT22;16305;48.566;8.846;2022-12-07T10:10:34;3.30;99.90
29295;DHT22;16305;48.566;8.846;2022-12-07T10:13:09;3.50;99.90
29295;DHT22;16305;48.566;8.846;2022-12-07T10:15:45;3.40;99.90
29295;DHT22;16305;48.566;8.846;2022-12-07T10:18:32;3.10;99.90
29295;DHT22;16305;48.566;8.846;2022-12-07T10:21:20;3.10;99.90
29295;DHT22;16305;48.566;8.846;2022-12-07T10:24:02;3.00;99.90
29295;DHT22;16305;48.566;8.846;2022-12-07T10:26:30;2.80;99.90
29295;DHT22;16305;48.566;8.846;2022-12-07T10:28:59;2.90;99.90
29295;DHT22;16305;48.566;8.846;2022-12-07T10:31:25;3.10;99.90
29295;DHT22;16305;48.566;8.846;2022-12-07T10:33:55;3.30;99.90
29295;DHT22;16305;48.566;8.846;2022-12-07T10:36:38;3.10;99.90
29295;DHT22;16305;48.566;8.846;2022-12-07T10:39:14;3.00;99.90
29295;DHT22;16305;48.566;8.846;2022-12-07T10:42:01;3.00;99.90
29295;DHT22;16305;48.566;8.846;2022-12-07T10:44:29;3.00;99.90
29295;DHT22;16305;48.566;8.846;2022-12-07T10:47:18;3.10;99.90
29295;DHT22;16305;48.566;8.846;2022-12-07T10:50:02;3.20;99.90
29295;DHT22;16305;48.566;8.846;2022-12-07T10:52:45;3.20;99.90
29295;DHT22;16305;48.566;8.846;2022-12-07T10:55:47;3.20;99.90
29295;DHT22;16305;48.566;8.846;2022-12-07T11:04:15;3.40;99.90
29295;DHT22;16305;48.566;8.846;2022-12-07T11:07:06;3.60;99.90
29295;DHT22;16305;48.566;8.846;2022-12-07T11:09:57;3.90;99.90
29295;DHT22;16305;48.566;8.846;2022-12-07T11:15:31;3.80;99.90
29295;DHT22;16305;48.566;8.846;2022-12-07T11:18:22;3.80;99.90
29295;DHT22;16305;48.566;8.846;2022-12-07T11:21:08;3.80;99.90
29295;DHT22;16305;48.566;8.846;2022-12-07T11:26:41;4.10;99.90
29295;DHT22;16305;48.566;8.846;2022-12-07T11:34:36;4.30;99.90
29295;DHT22;16305;48.566;8.846;2022-12-07T11:37:03;4.40;99.90
29295;DHT22;16305;48.566;8.846;2022-12-07T11:39:47;4.50;99.90
29295;DHT22;16305;48.566;8.846;2022-12-07T11:42:25;4.60;99.90
29295;DHT22;16305;48.566;8.846;2022-12-07T11:44:59;4.70;99.90
29295;DHT22;16305;48.566;8.846;2022-12-07T11:47:48;4.70;99.90
29295;DHT22;16305;48.566;8.846;2022-12-07T11:55:56;4.10;99.90
29295;DHT22;16305;48.566;8.846;2022-12-07T12:03:42;4.20;99.90
29295;DHT22;16305;48.566;8.846;2022-12-07T12:06:09;4.40;99.90
29295;DHT22;16305;48.566;8.846;2022-12-07T12:08:40;4.60;99.90
29295;DHT22;16305;48.566;8.846;2022-12-07T12:11:25;4.70;99.90
29295;DHT22;16305;48.566;8.846;2022-12-07T12:19:40;4.70;99.90
29295;DHT22;16305;48.566;8.846;2022-12-07T12:22:16;4.70;99.90
29295;DHT22;16305;48.566;8.846;2022-12-07T12:24:44;4.70;99.90
29295;DHT22;16305;48.566;8.846;2022-12-07T12:27:21;4.70;99.90
29295;DHT22;16305;48.566;8.846;2022-12-07T12:29:54;4.70;99.90
29295;DHT22;16305;48.566;8.846;2022-12-07T12:32:23;4.50;99.90
29295;DHT22;16305;48.566;8.846;2022-12-07T12:45:29;4.40;99.90
29295;DHT22;16305;48.566;8.846;2022-12-07T12:48:04;4.50;99.90
29295;DHT22;16305;48.566;8.846;2022-12-07T12:54:03;4.50;99.90
29295;DHT22;16305;48.566;8.846;2022-12-07T12:59:28;4.70;99.90
29295;DHT22;16305;48.566;8.846;2022-12-07T13:13:00;4.60;99.90
29295;DHT22;16305;48.566;8.846;2022-12-07T13:15:33;4.60;99.90
29295;DHT22;16305;48.566;8.846;2022-12-07T13:18:01;4.70;99.90
29295;DHT22;16305;48.566;8.846;2022-12-07T13:20:46;4.70;99.90
29295;DHT22;16305;48.566;8.846;2022-12-07T13:23:13;4.70;99.90
29295;DHT22;16305;48.566;8.846;2022-12-07T13:25:51;4.70;99.90
29295;DHT22;16305;48.566;8.846;2022-12-07T13:28:21;4.60;99.90
29295;DHT22;16305;48.566;8.846;2022-12-07T13:31:03;4.50;99.90
29295;DHT22;16305;48.566;8.846;2022-12-07T13:33:30;4.60;99.90
29295;DHT22;16305;48.566;8.846;2022-12-07T13:35:56;4.70;99.90
29295;DHT22;16305;48.566;8.846;2022-12-07T13:38:28;4.60;99.90
29295;DHT22;16305;48.566;8.846;2022-12-07T13:41:21;4.50;99.90
29295;DHT22;16305;48.566;8.846;2022-12-07T13:44:00;4.50;99.90
29295;DHT22;16305;48.566;8.846;2022-12-07T13:49:23;4.10;99.90
29295;DHT22;16305;48.566;8.846;2022-12-07T13:51:49;4.00;99.90
29295;DHT22;16305;48.566;8.846;2022-12-07T13:54:16;3.90;99.90
29295;DHT22;16305;48.566;8.846;2022-12-07T13:56:42;4.00;99.90
29295;DHT22;16305;48.566;8.846;2022-12-07T13:59:20;3.90;99.90
29295;DHT22;16305;48.566;8.846;2022-12-07T14:01:49;4.00;99.90
29295;DHT22;16305;48.566;8.846;2022-12-07T14:06:50;3.90;99.90
29295;DHT22;16305;48.566;8.846;2022-12-07T14:09:25;3.90;99.90
29295;DHT22;16305;48.566;8.846;2022-12-07T14:11:53;3.90;99.90
29295;DHT22;16305;48.566;8.846;2022-12-07T14:14:22;3.80;99.90
29295;DHT22;16305;48.566;8.846;2022-12-07T14:17:01;3.80;99.90
29295;DHT22;16305;48.566;8.846;2022-12-07T14:22:37;3.80;99.90
29295;DHT22;16305;48.566;8.846;2022-12-07T14:27:38;3.70;99.90
29295;DHT22;16305;48.566;8.846;2022-12-07T14:30:04;3.70;99.90
29295;DHT22;16305;48.566;8.846;2022-12-07T14:32:30;3.80;99.90
29295;DHT22;16305;48.566;8.846;2022-12-07T14:37:27;3.70;99.90
29295;DHT22;16305;48.566;8.846;2022-12-07T14:39:53;3.50;99.90
29295;DHT22;16305;48.566;8.846;2022-12-07T14:42:18;3.50;99.90
29295;DHT22;16305;48.566;8.846;2022-12-07T14:44:45;3.50;99.90
29295;DHT22;16305;48.566;8.846;2022-12-07T14:47:11;3.50;99.90
29295;DHT22;16305;48.566;8.846;2022-12-07T14:49:36;3.50;99.90
29295;DHT22;16305;48.566;8.846;2022-12-07T14:52:02;3.60;99.90
29295;DHT22;16305;48.566;8.846;2022-12-07T14:54:31;3.60;99.90
29295;DHT22;16305;48.566;8.846;2022-12-07T14:56:57;3.60;99.90
29295;DHT22;16305;48.566;8.846;2022-12-07T14:59:22;3.50;99.90
29295;DHT22;16305;48.566;8.846;2022-12-07T15:01:48;3.50;99.90
29295;DHT22;16305;48.566;8.846;2022-12-07T15:04:13;3.60;99.90
29295;DHT22;16305;48.566;8.846;2022-12-07T15:06:39;3.80;99.90
29295;DHT22;16305;48.566;8.846;2022-12-07T15:09:05;3.70;99.90
29295;DHT22;16305;48.566;8.846;2022-12-07T15:11:30;3.70;99.90
29295;DHT22;16305;48.566;8.846;2022-12-07T15:13:56;3.60;99.90
29295;DHT22;16305;48.566;8.846;2022-12-07T15:16:35;3.50;99.90
29295;DHT22;16305;48.566;8.846;2022-12-07T15:19:01;3.50;99.90
29295;DHT22;16305;48.566;8.846;2022-12-07T15:21:27;3.50;99.90
29295;DHT22;16305;48.566;8.846;2022-12-07T15:23:53;3.70;99.90
29295;DHT22;16305;48.566;8.846;2022-12-07T15:26:19;3.60;99.90
29295;DHT22;16305;48.566;8.846;2022-12-07T15:28:44;3.60;99.90
29295;DHT22;16305;48.566;8.846;2022-12-07T15:31:15;3.50;99.90
29295;DHT22;16305;48.566;8.846;2022-12-07T15:33:41;3.50;99.90
29295;DHT22;16305;48.566;8.846;2022-12-07T15:36:07;3.40;99.90
29295;DHT22;16305;48.566;8.846;2022-12-07T15:38:33;3.40;99.90
29295;DHT22;16305;48.566;8.846;2022-12-07T15:40:58;3.40;99.90
29295;DHT22;16305;48.566;8.846;2022-12-07T15:43:24;3.30;99.90
29295;DHT22;16305;48.566;8.846;2022-12-07T15:46:08;3.30;99.90
29295;DHT22;16305;48.566;8.846;2022-12-07T15:48:34;3.30;99.90
29295;DHT22;16305;48.566;8.846;2022-12-07T15:51:07;3.30;99.90
29295;DHT22;16305;48.566;8.846;2022-12-07T15:53:34;3.20;99.90
29295;DHT22;16305;48.566;8.846;2022-12-07T15:55:59;3.10;99.90
29295;DHT22;16305;48.566;8.846;2022-12-07T15:58:26;3.00;99.90
29295;DHT22;16305;48.566;8.846;2022-12-07T16:00:51;3.00;99.90
29295;DHT22;16305;48.566;8.846;2022-12-07T16:03:17;3.00;99.90
29295;DHT22;16305;48.566;8.846;2022-12-07T16:05:49;3.00;99.90
29295;DHT22;16305;48.566;8.846;2022-12-07T16:08:14;3.10;99.90
29295;DHT22;16305;48.566;8.846;2022-12-07T16:10:40;3.10;99.90
29295;DHT22;16305;48.566;8.846;2022-12-07T16:13:11;3.10;99.90
29295;DHT22;16305;48.566;8.846;2022-12-07T16:15:41;3.10;99.90
29295;DHT22;16305;48.566;8.846;2022-12-07T16:18:08;3.20;99.90
29295;DHT22;16305;48.566;8.846;2022-12-07T16:20:33;3.30;99.90
29295;DHT22;16305;48.566;8.846;2022-12-07T16:22:59;3.30;99.90
29295;DHT22;16305;48.566;8.846;2022-12-07T16:25:25;3.20;99.90
29295;DHT22;16305;48.566;8.846;2022-12-07T16:27:52;3.10;99.90
29295;DHT22;16305;48.566;8.846;2022-12-07T16:30:17;3.00;99.90
29295;DHT22;16305;48.566;8.846;2022-12-07T16:32:43;2.90;99.90
29295;DHT22;16305;48.566;8.846;2022-12-07T16:35:10;2.90;99.90
29295;DHT22;16305;48.566;8.846;2022-12-07T16:37:35;2.90;99.90
29295;DHT22;16305;48.566;8.846;2022-12-07T16:40:01;3.00;99.90
29295;DHT22;16305;48.566;8.846;2022-12-07T16:42:26;2.90;99.90
29295;DHT22;16305;48.566;8.846;2022-12-07T16:44:56;2.70;99.90
29295;DHT22;16305;48.566;8.846;2022-12-07T16:47:21;2.70;99.90
29295;DHT22;16305;48.566;8.846;2022-12-07T16:49:47;2.70;99.90
29295;DHT22;16305;48.566;8.846;2022-12-07T16:52:13;2.70;99.90
29295;DHT22;16305;48.566;8.846;2022-12-07T16:54:38;2.60;99.90
29295;DHT22;16305;48.566;8.846;2022-12-07T16:57:04;2.50;99.90
29295;DHT22;16305;48.566;8.846;2022-12-07T16:59:29;2.50;99.90
29295;DHT22;16305;48.566;8.846;2022-12-07T17:01:55;2.50;99.90
29295;DHT22;16305;48.566;8.846;2022-12-07T17:04:21;2.50;99.90
29295;DHT22;16305;48.566;8.846;2022-12-07T17:06:46;2.40;99.90
29295;DHT22;16305;48.566;8.846;2022-12-07T17:09:12;2.20;99.90
29295;DHT22;16305;48.566;8.846;2022-12-07T17:11:37;2.20;99.90
29295;DHT22;16305;48.566;8.846;2022-12-07T17:14:03;2.10;99.90
29295;DHT22;16305;48.566;8.846;2022-12-07T17:16:47;2.10;99.90
29295;DHT22;16305;48.566;8.846;2022-12-07T17:19:15;2.10;99.90
29295;DHT22;16305;48.566;8.846;2022-12-07T17:21:42;1.90;99.90
29295;DHT22;16305;48.566;8.846;2022-12-07T17:24:09;1.90;99.90
29295;DHT22;16305;48.566;8.846;2022-12-07T17:26:35;1.80;99.90
29295;DHT22;16305;48.566;8.846;2022-12-07T17:29:02;1.80;99.90
29295;DHT22;16305;48.566;8.846;2022-12-07T17:31:28;1.80;99.90
29295;DHT22;16305;48.566;8.846;2022-12-07T17:33:53;1.70;99.90
29295;DHT22;16305;48.566;8.846;2022-12-07T17:36:23;1.60;99.90